Terminal Aerodrome Forecast
Issued by NWS

Home | Current Version | Previous Version | Text Only | Print | Product List | Glossary On
Versions: 1 2 3 4 5 6 7 8 9 10 11 12 13 14
000
FTUS43 KDTX 211724
TAFYIP
TAF
KYIP 211724Z 2118/2218 21006KT P6SM SCT050 OVC100
      TEMPO 2118/2120 6SM -SHRA BKN050 OVC100
     FM212000 21005KT P6SM BKN040 OVC150
     FM220200 19003KT 5SM BR OVC018
     FM220500 18002KT 2SM BR OVC010
      TEMPO 2210/2213 1/2SM FG BKN004
     FM221400 20006KT 4SM BR SCT008 OVC022=

USA.gov is the U.S. government's official web portal to all federal, state and local government web resources and services.